Time;durP1;ratioP1;P1;durP2;ratioP2;P2;SDS_P1;SDS_P2;PMS_P1;PMS_P2;Temp;Humidity;BMP_temperature;BMP_pressure;BME280_temperature;BME280_humidity;BME280_pressure;Samples;Min_cycle;Max_cycle;Signal;HPM_P1;HPM_P2
2022/03/17 00:01:51;;;;;;;12.03;5.03;;;11.30;99.90;;;;;;4974422;28;20311;-89
2022/03/17 00:04:20;;;;;;;6.40;4.60;;;11.40;99.90;;;;;;4975209;28;20211;-90
2022/03/17 00:06:46;;;;;;;8.50;5.60;;;11.40;99.90;;;;;;4956939;28;20212;-92
2022/03/17 00:09:12;;;;;;;4.77;3.50;;;11.30;99.90;;;;;;4978470;28;21156;-90
2022/03/17 00:11:37;;;;;;;11.77;6.90;;;11.40;99.90;;;;;;4973619;28;21068;-86
2022/03/17 00:14:03;;;;;;;12.53;5.03;;;11.30;99.90;;;;;;4983706;28;20247;-91
2022/03/17 00:16:31;;;;;;;3.70;2.93;;;11.30;99.90;;;;;;4976596;28;20203;-92
2022/03/17 00:18:57;;;;;;;14.33;4.90;;;11.30;99.90;;;;;;4957152;28;20220;-90
2022/03/17 00:21:23;;;;;;;5.50;4.07;;;11.30;99.90;;;;;;4977822;28;20239;-91
2022/03/17 00:23:50;;;;;;;6.60;4.53;;;11.40;99.90;;;;;;4959046;28;20224;-88
2022/03/17 00:26:17;;;;;;;4.23;3.53;;;11.40;99.90;;;;;;4977680;28;20216;-90
2022/03/17 00:28:43;;;;;;;8.47;4.93;;;11.30;99.90;;;;;;4974083;28;20196;-88
2022/03/17 00:31:09;;;;;;;10.20;5.07;;;11.30;99.90;;;;;;4956570;28;20677;-91
2022/03/17 00:33:34;;;;;;;6.43;4.67;;;11.20;99.90;;;;;;4959319;28;20346;-91
2022/03/17 00:36:00;;;;;;;12.90;5.53;;;11.20;99.90;;;;;;4959452;28;21099;-92
2022/03/17 00:38:26;;;;;;;6.30;4.77;;;11.20;99.90;;;;;;4974594;28;21061;-89
2022/03/17 00:40:51;;;;;;;9.93;5.07;;;11.20;99.90;;;;;;4972736;28;20685;-88
2022/03/17 00:43:17;;;;;;;9.67;6.47;;;11.20;99.90;;;;;;4974571;28;20231;-91
2022/03/17 00:45:47;;;;;;;10.27;6.73;;;11.20;99.90;;;;;;4975884;28;20333;-88
2022/03/17 00:48:13;;;;;;;8.23;3.90;;;11.20;99.90;;;;;;4977153;28;20217;-88
2022/03/17 00:50:39;;;;;;;6.60;5.33;;;11.20;99.90;;;;;;4970526;28;20228;-84
2022/03/17 00:53:06;;;;;;;6.60;5.07;;;11.20;99.90;;;;;;4958443;28;20373;-89
2022/03/17 00:55:32;;;;;;;7.27;4.20;;;11.20;99.90;;;;;;4954169;28;20220;-91
2022/03/17 00:57:58;;;;;;;6.27;4.33;;;11.20;99.90;;;;;;4958839;28;21080;-88
2022/03/17 01:00:23;;;;;;;6.57;4.07;;;11.20;99.90;;;;;;4975858;28;20219;-88
2022/03/17 01:02:55;;;;;;;7.93;4.57;;;11.20;99.90;;;;;;4978467;28;20247;-90
2022/03/17 01:05:22;;;;;;;4.77;3.63;;;11.20;99.90;;;;;;4979242;28;20228;-90
2022/03/17 01:07:52;;;;;;;11.27;5.67;;;11.20;99.90;;;;;;4975474;28;20184;-91
2022/03/17 01:10:19;;;;;;;9.30;4.97;;;11.20;99.90;;;;;;4978321;28;20180;-91
2022/03/17 01:12:46;;;;;;;7.67;4.73;;;11.20;99.90;;;;;;4963092;28;20228;-87
2022/03/17 01:15:17;;;;;;;8.87;5.07;;;11.20;99.90;;;;;;4961231;28;20257;-86
2022/03/17 01:17:42;;;;;;;11.13;5.63;;;11.10;99.90;;;;;;4976830;28;20702;-85
2022/03/17 01:20:09;;;;;;;9.13;4.50;;;11.10;99.90;;;;;;4963707;28;20719;-86
2022/03/17 01:22:35;;;;;;;7.10;5.47;;;11.00;99.90;;;;;;4996186;28;20253;-86
2022/03/17 01:25:01;;;;;;;10.37;6.50;;;11.00;99.90;;;;;;4975996;28;20243;-86
2022/03/17 01:27:29;;;;;;;6.90;4.33;;;10.80;99.90;;;;;;4961407;28;20227;-86
2022/03/17 01:29:55;;;;;;;11.70;5.83;;;10.80;99.90;;;;;;4963784;28;20222;-86
2022/03/17 01:32:22;;;;;;;5.60;4.70;;;10.70;99.90;;;;;;4981026;28;20232;-86
2022/03/17 01:34:48;;;;;;;9.37;5.33;;;10.70;99.90;;;;;;4980341;28;20188;-86
2022/03/17 01:37:15;;;;;;;9.10;4.97;;;10.60;99.90;;;;;;4962663;28;20573;-86
2022/03/17 01:39:41;;;;;;;6.20;3.50;;;10.60;99.90;;;;;;4962209;28;20251;-86
2022/03/17 01:42:09;;;;;;;8.60;4.53;;;10.60;99.90;;;;;;4981383;28;20319;-85
2022/03/17 01:44:35;;;;;;;7.47;4.23;;;10.60;99.90;;;;;;4977699;28;20255;-85
2022/03/17 01:49:46;;;;;;;7.33;5.23;;;10.50;99.90;;;;;;4978397;28;20184;-88
2022/03/17 01:52:12;;;;;;;10.80;5.30;;;10.50;99.90;;;;;;4972139;28;20247;-86
2022/03/17 01:54:38;;;;;;;8.80;5.90;;;10.50;99.90;;;;;;4937753;28;20588;-88
2022/03/17 01:57:07;;;;;;;7.57;5.30;;;10.50;99.90;;;;;;4944012;28;20224;-86
2022/03/17 01:59:35;;;;;;;3.57;2.73;;;10.50;99.90;;;;;;4970128;28;20220;-86
2022/03/17 02:02:04;;;;;;;9.77;5.13;;;10.40;99.90;;;;;;4936248;28;20280;-85
2022/03/17 02:04:30;;;;;;;9.13;5.43;;;10.40;99.90;;;;;;4952464;28;20189;-84
2022/03/17 02:06:56;;;;;;;10.60;4.57;;;10.30;99.90;;;;;;4952486;28;20217;-85
2022/03/17 02:09:26;;;;;;;8.93;4.70;;;10.30;99.90;;;;;;4944923;28;20244;-87
2022/03/17 02:14:51;;;;;;;7.00;4.40;;;10.40;99.90;;;;;;4966943;28;20759;-89
2022/03/17 02:17:18;;;;;;;12.87;6.63;;;10.40;99.90;;;;;;4952271;28;20220;-89
2022/03/17 02:19:44;;;;;;;7.63;6.43;;;10.40;99.90;;;;;;4951457;28;20211;-88
2022/03/17 02:22:13;;;;;;;10.00;5.97;;;10.40;99.90;;;;;;4952639;28;20236;-91
2022/03/17 02:27:29;;;;;;;8.53;5.00;;;10.50;99.90;;;;;;4969631;28;20224;-89
2022/03/17 02:29:55;;;;;;;14.60;6.57;;;10.50;99.90;;;;;;4951852;28;20220;-88
2022/03/17 02:32:21;;;;;;;9.50;7.70;;;10.50;99.90;;;;;;4967976;28;20235;-89
2022/03/17 02:34:47;;;;;;;7.43;6.47;;;10.50;99.90;;;;;;4951728;28;20189;-90
2022/03/17 02:37:15;;;;;;;14.47;8.50;;;10.50;99.90;;;;;;4946681;28;20303;-89
2022/03/17 02:39:40;;;;;;;13.20;8.27;;;10.60;99.90;;;;;;4952113;28;20409;-88
2022/03/17 02:42:06;;;;;;;4.70;4.00;;;10.50;99.90;;;;;;4951249;28;20236;-89
2022/03/17 02:44:32;;;;;;;14.87;7.67;;;10.50;99.90;;;;;;4957276;28;20228;-90
2022/03/17 02:46:58;;;;;;;15.57;7.50;;;10.50;99.90;;;;;;4951582;28;20232;-91
2022/03/17 02:49:26;;;;;;;12.23;6.93;;;10.50;99.90;;;;;;4936907;28;20189;-90
2022/03/17 02:51:53;;;;;;;7.87;6.57;;;10.60;99.90;;;;;;4951367;28;20244;-89
2022/03/17 02:54:19;;;;;;;12.67;5.87;;;10.60;99.90;;;;;;4960218;28;20229;-89
2022/03/17 02:56:45;;;;;;;13.20;7.90;;;10.60;99.90;;;;;;4976465;28;20600;-87
2022/03/17 02:59:10;;;;;;;9.70;6.60;;;10.60;99.90;;;;;;4967419;28;20990;-89
2022/03/17 03:01:36;;;;;;;13.87;8.07;;;10.60;99.90;;;;;;4951976;28;20212;-88
2022/03/17 03:04:02;;;;;;;12.83;7.70;;;10.60;99.90;;;;;;4951418;28;20228;-90
2022/03/17 03:06:28;;;;;;;10.60;5.73;;;10.60;99.90;;;;;;4975639;28;20232;-86
2022/03/17 03:08:53;;;;;;;12.17;7.97;;;10.60;99.90;;;;;;4974729;28;20221;-90
2022/03/17 03:11:19;;;;;;;15.67;9.07;;;10.60;99.90;;;;;;4968382;28;20228;-88
2022/03/17 03:13:45;;;;;;;11.67;8.80;;;10.60;99.90;;;;;;4950110;28;20557;-88
2022/03/17 03:16:13;;;;;;;20.43;9.03;;;10.50;99.90;;;;;;4950603;28;20291;-87
2022/03/17 03:18:40;;;;;;;17.70;8.43;;;10.50;99.90;;;;;;4966827;28;20223;-86
2022/03/17 03:21:07;;;;;;;8.53;7.17;;;10.50;99.90;;;;;;4966823;28;20233;-88
2022/03/17 03:23:34;;;;;;;14.10;8.93;;;10.50;99.90;;;;;;4966672;28;20221;-89
2022/03/17 03:25:59;;;;;;;15.77;8.70;;;10.40;99.90;;;;;;4966479;28;20246;-90
2022/03/17 03:28:25;;;;;;;15.83;9.10;;;10.40;99.90;;;;;;4975072;28;20293;-87
2022/03/17 03:30:52;;;;;;;16.87;8.30;;;10.40;99.90;;;;;;4966258;28;20250;-88
2022/03/17 03:33:17;;;;;;;10.70;6.40;;;10.40;99.90;;;;;;4974221;28;20243;-86
2022/03/17 03:38:27;;;;;;;17.63;11.37;;;10.30;99.90;;;;;;4966681;28;20220;-89
2022/03/17 03:40:53;;;;;;;16.97;10.33;;;10.30;99.90;;;;;;4943515;28;20210;-89
2022/03/17 03:43:19;;;;;;;16.27;10.10;;;10.40;99.90;;;;;;4967824;28;20201;-89
2022/03/17 03:45:45;;;;;;;16.00;9.67;;;10.30;99.90;;;;;;4958834;28;20224;-86
2022/03/17 03:48:10;;;;;;;15.03;9.37;;;10.30;99.90;;;;;;4966075;28;20217;-90
2022/03/17 03:50:39;;;;;;;17.33;9.43;;;10.30;99.90;;;;;;4974699;28;20727;-91
2022/03/17 03:53:05;;;;;;;11.97;7.70;;;10.30;99.90;;;;;;4950050;28;20299;-87
2022/03/17 03:55:31;;;;;;;14.53;9.77;;;10.30;99.90;;;;;;4934245;28;20200;-88
2022/03/17 03:57:59;;;;;;;20.53;9.80;;;10.30;99.90;;;;;;4949699;28;20216;-89
2022/03/17 04:02:55;;;;;;;21.60;9.37;;;10.30;99.90;;;;;;4949588;28;20233;-88
2022/03/17 04:05:25;;;;;;;8.60;6.20;;;10.40;99.90;;;;;;4965666;28;20323;-87
2022/03/17 04:07:51;;;;;;;7.27;3.83;;;10.30;99.90;;;;;;4949347;28;20189;-85
2022/03/17 04:10:16;;;;;;;3.13;1.80;;;9.80;99.90;;;;;;4949259;28;20559;-86
2022/03/17 04:12:42;;;;;;;1.83;1.60;;;9.50;99.90;;;;;;4964963;28;21135;-84
2022/03/17 04:15:08;;;;;;;6.43;4.03;;;9.30;99.90;;;;;;4933218;28;20228;-86
2022/03/17 04:17:35;;;;;;;2.83;2.40;;;9.20;99.90;;;;;;4956721;28;20247;-86
2022/03/17 04:20:01;;;;;;;3.33;2.60;;;9.20;99.90;;;;;;4932880;28;20193;-86
2022/03/17 04:22:27;;;;;;;5.47;1.90;;;9.10;99.90;;;;;;4942940;28;20220;-87
2022/03/17 04:24:53;;;;;;;1.50;1.37;;;9.10;99.90;;;;;;4941791;28;20224;-86
2022/03/17 04:27:19;;;;;;;4.53;1.53;;;9.00;99.90;;;;;;4932966;28;20216;-86
2022/03/17 04:29:45;;;;;;;2.87;2.43;;;9.00;99.90;;;;;;4948970;28;20766;-86
2022/03/17 04:32:10;;;;;;;3.67;2.13;;;9.00;99.90;;;;;;4948435;28;20263;-84
2022/03/17 04:34:36;;;;;;;1.40;0.93;;;8.90;99.90;;;;;;4951744;28;20196;-86
2022/03/17 04:37:02;;;;;;;5.70;1.80;;;8.90;99.90;;;;;;4961950;28;20232;-87
2022/03/17 04:39:28;;;;;;;3.80;2.20;;;8.80;99.90;;;;;;4930455;28;20229;-82
2022/03/17 04:41:54;;;;;;;7.00;2.03;;;8.70;99.90;;;;;;4945834;28;20606;-85
2022/03/17 04:44:19;;;;;;;3.93;1.97;;;8.60;99.90;;;;;;4958376;28;20229;-84
2022/03/17 04:46:46;;;;;;;2.00;1.77;;;8.60;99.90;;;;;;4965184;28;20197;-86
2022/03/17 04:49:12;;;;;;;3.70;1.97;;;8.60;99.90;;;;;;4940082;28;20255;-86
2022/03/17 04:51:38;;;;;;;4.50;2.83;;;8.60;99.90;;;;;;4965373;28;20221;-86
2022/03/17 04:54:04;;;;;;;23.33;3.77;;;8.60;99.90;;;;;;4967447;28;20220;-84
2022/03/17 04:56:30;;;;;;;9.90;3.77;;;8.50;99.90;;;;;;4984188;28;20338;-84
2022/03/17 04:58:56;;;;;;;4.30;3.40;;;8.50;99.90;;;;;;4951699;28;20212;-84
2022/03/17 05:01:23;;;;;;;3.77;2.30;;;8.50;99.90;;;;;;4985024;28;20223;-87
2022/03/17 05:03:49;;;;;;;3.87;3.57;;;8.50;99.90;;;;;;4980644;28;20235;-84
2022/03/17 05:06:16;;;;;;;2.77;2.30;;;8.50;99.90;;;;;;4949519;28;20223;-87
2022/03/17 05:08:42;;;;;;;7.27;1.90;;;8.40;99.90;;;;;;4965114;28;20223;-85
2022/03/17 05:11:09;;;;;;;1.87;1.70;;;8.40;99.90;;;;;;4984209;28;20219;-85
2022/03/17 05:13:36;;;;;;;1.07;0.97;;;8.40;99.90;;;;;;4986864;28;20180;-88
2022/03/17 05:16:04;;;;;;;5.97;1.97;;;8.30;99.90;;;;;;4968086;28;20223;-86
2022/03/17 05:18:30;;;;;;;1.83;0.90;;;8.30;99.90;;;;;;4984643;28;20320;-87
2022/03/17 05:20:56;;;;;;;1.40;0.90;;;8.30;99.90;;;;;;4985672;28;20275;-86
2022/03/17 05:23:22;;;;;;;0.80;0.80;;;8.30;99.90;;;;;;4959258;28;20257;-87
2022/03/17 05:25:49;;;;;;;0.50;0.50;;;8.20;99.90;;;;;;4984590;28;20258;-86
2022/03/17 05:28:16;;;;;;;0.40;0.40;;;8.20;99.90;;;;;;4969002;28;20199;-87
2022/03/17 05:30:43;;;;;;;3.83;1.63;;;8.30;99.90;;;;;;4977005;28;20219;-87
2022/03/17 05:33:11;;;;;;;7.50;1.80;;;8.30;99.90;;;;;;4962973;28;20338;-86
2022/03/17 05:35:38;;;;;;;2.13;1.50;;;8.30;99.90;;;;;;4979297;28;20246;-86
2022/03/17 05:38:04;;;;;;;1.00;1.00;;;8.30;99.90;;;;;;4971587;28;20228;-87
2022/03/17 05:40:30;;;;;;;6.63;1.17;;;8.30;99.90;;;;;;4971980;28;20195;-89
2022/03/17 05:42:59;;;;;;;1.33;1.03;;;8.30;99.90;;;;;;4963029;28;20240;-84
2022/03/17 05:45:26;;;;;;;2.87;1.90;;;8.30;99.90;;;;;;4989330;28;20266;-85
2022/03/17 05:47:57;;;;;;;1.10;1.00;;;8.30;99.90;;;;;;4987837;28;20227;-88
2022/03/17 05:50:29;;;;;;;2.87;1.30;;;8.30;99.90;;;;;;4963745;28;20220;-84
2022/03/17 05:52:55;;;;;;;2.47;1.23;;;8.30;99.90;;;;;;4969759;28;20235;-90
2022/03/17 05:55:23;;;;;;;1.87;0.60;;;8.20;99.90;;;;;;4970987;28;20207;-88
2022/03/17 05:57:50;;;;;;;10.63;0.57;;;8.20;99.90;;;;;;4986377;28;20224;-87
2022/03/17 06:00:18;;;;;;;0.80;0.80;;;8.20;99.90;;;;;;4961788;28;20273;-90
2022/03/17 06:02:45;;;;;;;2.00;0.83;;;8.20;99.90;;;;;;4969944;28;20676;-89
2022/03/17 06:05:14;;;;;;;3.33;2.03;;;8.20;99.90;;;;;;4969758;28;20270;-88
2022/03/17 06:07:41;;;;;;;0.33;0.33;;;8.20;99.90;;;;;;4961858;28;20188;-90
2022/03/17 06:10:12;;;;;;;1.47;1.40;;;8.10;99.90;;;;;;4971870;28;20280;-88
2022/03/17 06:12:39;;;;;;;9.33;0.60;;;8.10;99.90;;;;;;4970638;28;20223;-89
2022/03/17 06:15:07;;;;;;;2.10;2.00;;;8.10;99.90;;;;;;4985914;28;20222;-87
2022/03/17 06:17:45;;;;;;;1.70;1.20;;;8.10;99.90;;;;;;4970019;28;20220;-87
2022/03/17 06:20:13;;;;;;;0.30;0.30;;;8.20;99.90;;;;;;4987521;28;20294;-87
2022/03/17 06:22:40;;;;;;;0.30;0.30;;;8.10;99.90;;;;;;4970933;28;20334;-91
2022/03/17 06:25:08;;;;;;;1.17;1.07;;;8.10;99.90;;;;;;4969608;28;20216;-84
2022/03/17 06:27:36;;;;;;;0.63;0.57;;;8.20;99.90;;;;;;4969321;28;20696;-84
2022/03/17 06:30:04;;;;;;;2.87;2.67;;;8.20;99.90;;;;;;4985538;28;20378;-87
2022/03/17 06:32:30;;;;;;;0.63;0.63;;;8.20;99.90;;;;;;4984851;28;20255;-85
2022/03/17 06:34:56;;;;;;;10.60;0.50;;;8.20;99.90;;;;;;4964172;28;20212;-87
2022/03/17 06:37:22;;;;;;;0.37;0.37;;;8.20;99.90;;;;;;4984406;28;20214;-85
2022/03/17 06:39:47;;;;;;;0.97;0.57;;;8.20;99.90;;;;;;4969261;28;20216;-84
2022/03/17 06:42:13;;;;;;;1.40;1.27;;;8.20;99.90;;;;;;4985157;28;20262;-85
2022/03/17 06:44:39;;;;;;;0.37;0.37;;;8.20;99.90;;;;;;4952977;28;20310;-85
2022/03/17 06:47:05;;;;;;;0.83;0.83;;;8.10;99.90;;;;;;4960811;28;20239;-86
2022/03/17 06:49:31;;;;;;;2.07;0.70;;;8.10;99.90;;;;;;4959829;28;20819;-88
2022/03/17 06:51:57;;;;;;;6.77;0.80;;;8.10;99.90;;;;;;4984558;28;20602;-85
2022/03/17 06:54:22;;;;;;;0.80;0.73;;;8.10;99.90;;;;;;4975781;28;20322;-85
2022/03/17 06:56:48;;;;;;;2.23;0.97;;;8.10;99.90;;;;;;4953463;28;20295;-87
2022/03/17 06:59:14;;;;;;;5.47;0.77;;;8.10;99.90;;;;;;4952355;28;20216;-85
2022/03/17 07:01:39;;;;;;;2.17;0.20;;;8.00;99.90;;;;;;4977654;28;20677;-86
2022/03/17 07:04:05;;;;;;;0.20;0.20;;;8.10;99.90;;;;;;4960916;28;20220;-86
2022/03/17 07:06:31;;;;;;;3.73;0.60;;;8.10;99.90;;;;;;4968857;28;20374;-83
2022/03/17 07:08:56;;;;;;;1.73;0.53;;;8.10;99.90;;;;;;4954236;28;20219;-87
2022/03/17 07:11:22;;;;;;;0.20;0.20;;;8.20;99.90;;;;;;4965472;28;20232;-86
2022/03/17 07:13:48;;;;;;;7.93;0.77;;;8.20;99.90;;;;;;4970288;28;20335;-86
2022/03/17 07:16:14;;;;;;;2.63;1.17;;;8.20;99.90;;;;;;4935920;28;20199;-86
2022/03/17 07:18:39;;;;;;;0.40;0.40;;;8.10;99.90;;;;;;4980315;28;20220;-83
2022/03/17 07:21:07;;;;;;;2.43;0.53;;;8.10;99.90;;;;;;4966697;28;20267;-82
2022/03/17 07:23:32;;;;;;;1.17;0.73;;;8.10;99.90;;;;;;4960352;28;20216;-84
2022/03/17 07:25:58;;;;;;;11.43;3.10;;;8.20;99.90;;;;;;4952649;28;20211;-86
2022/03/17 07:28:25;;;;;;;1.27;0.40;;;8.20;99.90;;;;;;4957105;28;20700;-87
2022/03/17 07:30:51;;;;;;;5.17;1.07;;;8.10;99.90;;;;;;4965297;28;20220;-84
2022/03/17 07:33:17;;;;;;;0.63;0.43;;;8.10;99.90;;;;;;4944964;28;20212;-82
2022/03/17 07:35:43;;;;;;;0.80;0.80;;;8.10;99.90;;;;;;4960909;28;20631;-86
2022/03/17 07:38:09;;;;;;;2.30;1.13;;;8.20;99.90;;;;;;4967143;28;20285;-85
2022/03/17 07:40:35;;;;;;;2.93;0.80;;;8.20;99.90;;;;;;4986054;28;20184;-87
2022/03/17 07:43:01;;;;;;;0.53;0.53;;;8.20;99.90;;;;;;4951377;28;20236;-85
2022/03/17 07:45:27;;;;;;;0.40;0.40;;;8.20;99.90;;;;;;4976200;28;20216;-85
2022/03/17 07:47:53;;;;;;;0.30;0.30;;;8.20;99.90;;;;;;4962058;28;20338;-87
2022/03/17 07:50:19;;;;;;;0.93;0.60;;;8.20;99.90;;;;;;4984627;28;20694;-85
2022/03/17 07:52:45;;;;;;;0.53;0.53;;;8.20;99.90;;;;;;4983742;28;20709;-86
2022/03/17 07:55:12;;;;;;;2.33;0.87;;;8.20;99.90;;;;;;4952652;28;20200;-88
2022/03/17 07:57:38;;;;;;;2.73;1.03;;;8.20;99.90;;;;;;4985492;28;20246;-84
2022/03/17 08:00:07;;;;;;;2.53;1.00;;;8.20;99.90;;;;;;4984283;28;20216;-86
2022/03/17 08:02:33;;;;;;;2.57;1.10;;;8.20;99.90;;;;;;4958767;28;20693;-83
2022/03/17 08:05:01;;;;;;;2.57;0.60;;;8.10;99.90;;;;;;4967888;28;20195;-86
2022/03/17 08:07:28;;;;;;;0.80;0.80;;;8.10;99.90;;;;;;4968599;28;20187;-86
2022/03/17 08:09:54;;;;;;;0.30;0.30;;;8.10;99.90;;;;;;4985150;28;20219;-84
2022/03/17 08:12:22;;;;;;;1.20;0.77;;;8.10;99.90;;;;;;4982188;28;20232;-85
2022/03/17 08:14:50;;;;;;;2.03;1.60;;;8.20;99.90;;;;;;4968174;28;20369;-85
2022/03/17 08:17:16;;;;;;;0.97;0.80;;;8.30;99.90;;;;;;4967933;28;20728;-86
2022/03/17 08:19:41;;;;;;;0.53;0.53;;;8.30;99.90;;;;;;4983773;28;20196;-84
2022/03/17 08:22:07;;;;;;;0.30;0.30;;;8.40;99.90;;;;;;4967251;28;20319;-85
2022/03/17 08:24:34;;;;;;;5.00;1.07;;;8.50;99.90;;;;;;4951513;28;20631;-86
2022/03/17 08:27:02;;;;;;;0.20;0.20;;;8.50;99.90;;;;;;4950948;28;20219;-84
2022/03/17 08:29:31;;;;;;;1.60;0.90;;;8.50;99.90;;;;;;4951159;28;20335;-84
2022/03/17 08:31:57;;;;;;;6.53;0.70;;;8.50;99.90;;;;;;4984563;28;20192;-86
2022/03/17 08:34:23;;;;;;;7.30;0.70;;;8.50;99.90;;;;;;4967773;28;20686;-84
2022/03/17 08:36:54;;;;;;;0.43;0.43;;;8.60;99.90;;;;;;4967411;28;20220;-85
2022/03/17 08:39:20;;;;;;;1.80;0.43;;;8.60;99.90;;;;;;4982152;28;20310;-84
2022/03/17 08:41:46;;;;;;;0.77;0.60;;;9.30;99.90;;;;;;4958693;28;20709;-87
2022/03/17 08:44:12;;;;;;;2.73;0.43;;;10.20;99.90;;;;;;4983378;28;20666;-86
2022/03/17 08:49:22;;;;;;;2.27;0.83;;;11.40;99.90;;;;;;4985139;28;20208;-88
2022/03/17 08:51:57;;;;;;;0.77;0.50;;;11.20;99.90;;;;;;4968211;28;20282;-89
2022/03/17 08:54:25;;;;;;;2.30;0.83;;;11.40;99.90;;;;;;4984749;28;20229;-91
2022/03/17 08:56:59;;;;;;;2.47;0.87;;;11.50;99.90;;;;;;4985462;28;20711;-88
2022/03/17 08:59:30;;;;;;;0.60;0.60;;;10.80;99.90;;;;;;4985002;28;20231;-91
2022/03/17 09:01:59;;;;;;;2.53;0.60;;;10.60;99.90;;;;;;4968125;28;20223;-88
2022/03/17 09:04:26;;;;;;;2.57;1.63;;;10.90;99.90;;;;;;4985787;28;20207;-91
2022/03/17 09:06:52;;;;;;;2.73;0.93;;;10.70;99.90;;;;;;4969091;28;20355;-93
2022/03/17 09:09:17;;;;;;;4.33;0.43;;;10.60;99.90;;;;;;4972108;28;20239;-93
2022/03/17 09:11:45;;;;;;;2.60;0.37;;;10.40;99.90;;;;;;4963861;28;20227;-91
2022/03/17 09:14:11;;;;;;;3.63;2.03;;;10.30;99.90;;;;;;4965886;28;20230;-88
2022/03/17 09:16:37;;;;;;;0.83;0.60;;;10.20;99.90;;;;;;4988018;28;20192;-93
2022/03/17 09:19:03;;;;;;;0.53;0.53;;;10.40;99.90;;;;;;4963513;28;20258;-88
2022/03/17 09:21:29;;;;;;;0.87;0.33;;;10.40;99.90;;;;;;4987784;28;20580;-89
2022/03/17 09:23:55;;;;;;;5.13;2.10;;;10.30;99.90;;;;;;4993179;28;20302;-91
2022/03/17 09:26:21;;;;;;;5.40;1.60;;;10.20;99.90;;;;;;4984764;28;20259;-92
2022/03/17 09:28:46;;;;;;;0.20;0.20;;;10.20;99.90;;;;;;4956569;28;20196;-89
2022/03/17 09:31:12;;;;;;;0.43;0.43;;;9.90;99.90;;;;;;4988393;28;20649;-91
2022/03/17 09:33:38;;;;;;;0.63;0.37;;;10.10;99.90;;;;;;4971144;28;20223;-90
2022/03/17 09:36:04;;;;;;;3.93;0.77;;;10.30;99.90;;;;;;4955300;28;20739;-89
2022/03/17 09:38:29;;;;;;;12.07;1.03;;;10.30;99.90;;;;;;4955228;28;20228;-92
2022/03/17 09:40:57;;;;;;;0.90;0.20;;;10.10;99.90;;;;;;4971355;28;20188;-86
2022/03/17 09:43:22;;;;;;;0.40;0.40;;;10.20;99.90;;;;;;4967022;28;20199;-90
2022/03/17 09:45:56;;;;;;;0.70;0.53;;;10.20;99.90;;;;;;4979018;28;20235;-88
2022/03/17 09:48:24;;;;;;;3.03;1.07;;;10.30;99.90;;;;;;4987142;28;20532;-92
2022/03/17 09:50:56;;;;;;;1.10;0.57;;;10.40;99.90;;;;;;4988185;28;20220;-90
2022/03/17 09:53:25;;;;;;;3.50;1.53;;;10.60;99.90;;;;;;4977692;28;20240;-92
2022/03/17 09:55:51;;;;;;;12.70;0.90;;;10.90;99.90;;;;;;4965203;28;20245;-91
2022/03/17 09:58:17;;;;;;;8.50;1.17;;;11.10;99.90;;;;;;4971562;28;20192;-90
2022/03/17 10:00:50;;;;;;;0.53;0.53;;;11.10;99.90;;;;;;4988981;28;20226;-93
2022/03/17 10:03:25;;;;;;;5.07;0.83;;;11.20;99.90;;;;;;4963298;28;20555;-93
2022/03/17 10:05:52;;;;;;;3.23;0.97;;;11.20;99.90;;;;;;4987849;28;20234;-92
2022/03/17 10:08:20;;;;;;;2.07;1.03;;;11.20;99.90;;;;;;4987920;28;20306;-92
2022/03/17 10:10:49;;;;;;;2.57;0.63;;;10.70;99.90;;;;;;4978063;28;20282;-90
2022/03/17 10:13:16;;;;;;;0.73;0.53;;;10.60;99.90;;;;;;4963633;28;20278;-90
2022/03/17 10:15:45;;;;;;;3.87;0.77;;;10.70;99.90;;;;;;4988334;28;20219;-91
2022/03/17 10:18:24;;;;;;;4.10;1.23;;;11.10;99.90;;;;;;4978717;28;20242;-91
2022/03/17 10:21:06;;;;;;;4.53;1.33;;;11.50;99.90;;;;;;4960696;28;20223;-91
2022/03/17 10:23:32;;;;;;;9.20;1.90;;;11.80;99.90;;;;;;4979598;28;20293;-90
2022/03/17 10:25:58;;;;;;;4.90;0.93;;;11.90;99.90;;;;;;4961590;28;20944;-90
2022/03/17 10:28:26;;;;;;;9.40;1.50;;;12.30;99.90;;;;;;4965231;28;20283;-91
2022/03/17 10:31:03;;;;;;;4.60;1.03;;;12.40;99.90;;;;;;4986466;28;20215;-92
2022/03/17 10:33:29;;;;;;;5.07;1.80;;;12.60;99.90;;;;;;4987837;28;20223;-91
2022/03/17 10:36:11;;;;;;;6.27;1.00;;;12.70;99.90;;;;;;4978774;28;20249;-90
2022/03/17 10:38:43;;;;;;;1.90;1.20;;;13.00;99.90;;;;;;4962817;28;20583;-90
2022/03/17 10:41:12;;;;;;;7.20;1.53;;;13.20;99.90;;;;;;4962071;28;20410;-90
2022/03/17 10:43:42;;;;;;;3.47;1.57;;;13.40;99.90;;;;;;4977314;28;20184;-91
2022/03/17 10:46:12;;;;;;;5.13;0.80;;;13.60;99.90;;;;;;4987713;28;20255;-92
2022/03/17 10:49:01;;;;;;;3.47;1.37;;;13.00;99.90;;;;;;4987614;28;20251;-91
2022/03/17 10:51:45;;;;;;;1.97;0.90;;;13.30;99.90;;;;;;4962349;28;20326;-91
2022/03/17 10:54:19;;;;;;;2.73;1.73;;;13.60;99.90;;;;;;4949702;28;20247;-92
2022/03/17 10:57:09;;;;;;;5.70;1.40;;;13.50;99.90;;;;;;4957592;28;20312;-92
2022/03/17 10:59:38;;;;;;;9.67;1.70;;;13.00;99.90;;;;;;4964865;28;20670;-93
2022/03/17 11:02:10;;;;;;;1.00;0.80;;;12.80;99.90;;;;;;4965133;28;20606;-89
2022/03/17 11:04:40;;;;;;;4.00;1.60;;;12.90;99.90;;;;;;4949878;28;20195;-93
2022/03/17 11:07:13;;;;;;;0.30;0.30;;;13.10;99.90;;;;;;4960026;28;20595;-92
2022/03/17 11:09:40;;;;;;;5.77;1.43;;;13.10;99.90;;;;;;4949311;28;20271;-91
2022/03/17 11:12:18;;;;;;;4.50;1.37;;;13.20;99.90;;;;;;4955583;28;20225;-94
2022/03/17 11:14:51;;;;;;;6.10;1.30;;;12.70;99.90;;;;;;4948575;28;20228;-92
2022/03/17 11:17:23;;;;;;;6.07;1.97;;;12.40;99.90;;;;;;4948071;28;20220;-92
2022/03/17 11:19:49;;;;;;;7.00;1.27;;;13.00;99.90;;;;;;4965150;28;20196;-92
2022/03/17 11:22:20;;;;;;;4.33;1.50;;;12.80;99.90;;;;;;4959017;28;20227;-93
2022/03/17 11:24:46;;;;;;;0.70;0.60;;;12.80;99.90;;;;;;4940748;28;20693;-93
2022/03/17 11:27:14;;;;;;;5.77;1.30;;;12.90;99.90;;;;;;4933292;28;20279;-92
2022/03/17 11:29:48;;;;;;;1.30;1.13;;;13.40;99.90;;;;;;4946505;28;20302;-92
2022/03/17 11:32:31;;;;;;;0.97;0.80;;;13.40;99.90;;;;;;4947962;28;20220;-91
2022/03/17 11:35:11;;;;;;;2.47;1.20;;;12.80;99.90;;;;;;4939572;28;20189;-94
2022/03/17 11:37:37;;;;;;;2.27;0.90;;;12.70;99.90;;;;;;4949435;28;20550;-90
2022/03/17 11:40:19;;;;;;;3.57;2.87;;;11.80;99.90;;;;;;4938043;28;20577;-91
2022/03/17 11:42:49;;;;;;;1.43;0.70;;;11.30;99.90;;;;;;4955874;28;20609;-90
2022/03/17 11:45:15;;;;;;;0.97;0.87;;;11.60;99.90;;;;;;4966223;28;20217;-91
2022/03/17 11:47:49;;;;;;;0.97;0.90;;;12.00;99.90;;;;;;4974257;28;20235;-94
2022/03/17 11:50:33;;;;;;;7.13;0.93;;;12.10;99.90;;;;;;4953291;28;20250;-89
2022/03/17 11:53:07;;;;;;;0.90;0.87;;;12.30;99.90;;;;;;4961950;28;20299;-90
2022/03/17 11:55:42;;;;;;;2.70;0.90;;;12.10;99.90;;;;;;4966948;28;20863;-91
2022/03/17 11:58:34;;;;;;;10.93;1.23;;;12.10;99.90;;;;;;4966205;28;20220;-91
2022/03/17 12:01:23;;;;;;;9.53;1.23;;;12.10;99.90;;;;;;4964505;28;20355;-91
2022/03/17 12:04:00;;;;;;;1.23;0.77;;;12.50;99.90;;;;;;4947323;28;20299;-90
2022/03/17 12:06:31;;;;;;;3.23;1.30;;;12.40;99.90;;;;;;4964089;28;20246;-92
2022/03/17 12:09:04;;;;;;;4.07;1.07;;;12.50;99.90;;;;;;4955895;28;20219;-93
2022/03/17 12:11:30;;;;;;;4.10;1.30;;;12.20;99.90;;;;;;4964684;28;20413;-91
2022/03/17 12:14:13;;;;;;;4.00;2.07;;;12.40;99.90;;;;;;4966044;28;20193;-88
2022/03/17 12:16:53;;;;;;;3.13;0.60;;;12.60;99.90;;;;;;4942742;28;20196;-89
2022/03/17 12:19:39;;;;;;;1.17;0.70;;;12.40;99.90;;;;;;4949158;28;20319;-91
2022/03/17 12:22:11;;;;;;;0.60;0.40;;;12.10;99.90;;;;;;4948314;28;20713;-90
2022/03/17 12:24:41;;;;;;;1.97;0.90;;;11.90;99.90;;;;;;4948848;28;20254;-88
2022/03/17 12:27:09;;;;;;;2.43;0.60;;;12.10;99.90;;;;;;4938528;28;20228;-89
2022/03/17 12:29:36;;;;;;;2.20;0.80;;;11.80;99.90;;;;;;4964548;28;20306;-90
2022/03/17 12:32:18;;;;;;;6.77;0.77;;;11.70;99.90;;;;;;4964248;28;20220;-92
2022/03/17 12:34:46;;;;;;;2.90;1.00;;;11.40;99.90;;;;;;4948821;28;20169;-89
2022/03/17 12:37:13;;;;;;;4.33;1.77;;;11.50;99.90;;;;;;4965728;28;20701;-90
2022/03/17 12:39:40;;;;;;;3.43;0.97;;;11.30;99.90;;;;;;4932446;28;20665;-90
2022/03/17 12:42:41;;;;;;;8.60;0.77;;;11.40;99.90;;;;;;4965866;28;20267;-90
2022/03/17 12:45:12;;;;;;;6.67;0.90;;;11.30;99.90;;;;;;4965108;28;20216;-91
2022/03/17 12:47:40;;;;;;;2.10;1.00;;;11.60;99.90;;;;;;4940372;28;20220;-92
2022/03/17 12:50:09;;;;;;;2.97;0.73;;;11.60;99.90;;;;;;4965547;28;20271;-90
2022/03/17 12:52:36;;;;;;;3.50;0.40;;;11.40;99.90;;;;;;4965711;28;20236;-88
2022/03/17 12:55:05;;;;;;;1.53;0.63;;;11.40;99.90;;;;;;4964822;28;20307;-90
2022/03/17 12:57:33;;;;;;;4.03;1.23;;;11.40;99.90;;;;;;4964707;28;20470;-90
2022/03/17 12:59:59;;;;;;;0.60;0.30;;;11.30;99.90;;;;;;4963763;28;20240;-89
2022/03/17 13:02:26;;;;;;;5.10;0.80;;;11.20;99.90;;;;;;4970643;28;20233;-91
2022/03/17 13:04:57;;;;;;;5.27;1.80;;;11.00;99.90;;;;;;4964377;28;20192;-91
2022/03/17 13:07:27;;;;;;;1.80;0.60;;;11.10;99.90;;;;;;4963471;28;20653;-90
2022/03/17 13:09:54;;;;;;;0.73;0.73;;;11.20;99.90;;;;;;4939786;28;20215;-89